Time;durP1;ratioP1;P1;durP2;ratioP2;P2;SDS_P1;SDS_P2;PMS_P1;PMS_P2;Temp;Humidity;BMP_temperature;BMP_pressure;BME280_temperature;BME280_humidity;BME280_pressure;Samples;Min_cycle;Max_cycle;Signal;HPM_P1;HPM_P2
2022/04/14 00:01:11;;;;;;;3.00;1.17;;;;;;;;;;5076121;28;20372;-80
2022/04/14 00:03:36;;;;;;;1.17;0.70;;;;;;;;;;5094026;28;20039;-79
2022/04/14 00:06:02;;;;;;;2.53;0.60;;;;;;;;;;5095738;28;20110;-80
2022/04/14 00:08:27;;;;;;;1.30;0.70;;;;;;;;;;5101697;28;20461;-80
2022/04/14 00:10:53;;;;;;;1.85;0.65;;;;;;;;;;5080003;28;20059;-80
2022/04/14 00:13:18;;;;;;;1.85;0.93;;;;;;;;;;5079427;28;20032;-80
2022/04/14 00:15:44;;;;;;;3.25;1.00;;;;;;;;;;5098147;28;20477;-80
2022/04/14 00:18:09;;;;;;;1.40;0.95;;;;;;;;;;5097839;28;20039;-80
2022/04/14 00:20:34;;;;;;;1.75;1.23;;;;;;;;;;5076192;28;20049;-80
2022/04/14 00:23:00;;;;;;;1.40;1.15;;;;;;;;;;5077529;28;20034;-79
2022/04/14 00:25:25;;;;;;;7.22;1.45;;;;;;;;;;5078718;28;20028;-80
2022/04/14 00:27:51;;;;;;;3.53;1.23;;;;;;;;;;5087228;28;20040;-80
2022/04/14 00:30:16;;;;;;;2.38;1.05;;;;;;;;;;5080012;28;20497;-79
2022/04/14 00:32:42;;;;;;;0.95;0.73;;;;;;;;;;5076190;28;20089;-80
2022/04/14 00:35:07;;;;;;;0.75;0.75;;;;;;;;;;5077248;28;20056;-80
2022/04/14 00:37:33;;;;;;;2.05;1.33;;;;;;;;;;5077180;28;20521;-79
2022/04/14 00:39:58;;;;;;;0.45;0.45;;;;;;;;;;5076846;28;20373;-80
2022/04/14 00:42:23;;;;;;;1.55;1.05;;;;;;;;;;5075887;28;20117;-80
2022/04/14 00:44:49;;;;;;;1.38;1.10;;;;;;;;;;5076107;28;20039;-80
2022/04/14 00:47:14;;;;;;;0.68;0.68;;;;;;;;;;5078304;28;20024;-80
2022/04/14 00:49:40;;;;;;;3.50;0.90;;;;;;;;;;5082403;28;20020;-80
2022/04/14 00:52:06;;;;;;;0.95;0.75;;;;;;;;;;5059101;28;20031;-80
2022/04/14 00:54:31;;;;;;;0.52;0.52;;;;;;;;;;5076559;28;20028;-80
2022/04/14 00:57:00;;;;;;;1.67;0.60;;;;;;;;;;5076214;28;20024;-80
2022/04/14 00:59:26;;;;;;;1.90;1.02;;;;;;;;;;5075836;28;20028;-80
2022/04/14 01:01:51;;;;;;;0.63;0.63;;;;;;;;;;5058968;28;20035;-79
2022/04/14 01:04:17;;;;;;;1.60;1.02;;;;;;;;;;5059092;28;20334;-80
2022/04/14 01:06:43;;;;;;;2.30;1.27;;;;;;;;;;5075407;28;20032;-80
2022/04/14 01:09:21;;;;;;;1.35;0.93;;;;;;;;;;5078301;28;20086;-79
2022/04/14 01:11:50;;;;;;;1.77;1.00;;;;;;;;;;5075499;28;20119;-80
2022/04/14 01:14:25;;;;;;;2.10;1.20;;;;;;;;;;5042637;28;20032;-80
2022/04/14 01:16:51;;;;;;;1.25;1.15;;;;;;;;;;5076053;28;20028;-79
2022/04/14 01:19:17;;;;;;;1.13;0.85;;;;;;;;;;5076714;28;20390;-80
2022/04/14 01:21:46;;;;;;;0.73;0.60;;;;;;;;;;5096639;28;20081;-80
2022/04/14 01:24:14;;;;;;;4.30;1.75;;;;;;;;;;5096284;28;20020;-79
2022/04/14 01:26:40;;;;;;;0.60;0.52;;;;;;;;;;5078678;28;20476;-80
2022/04/14 01:29:05;;;;;;;1.42;1.05;;;;;;;;;;5079279;28;20410;-80
2022/04/14 01:31:31;;;;;;;7.85;1.02;;;;;;;;;;5080158;28;20027;-80
2022/04/14 01:33:56;;;;;;;1.48;1.10;;;;;;;;;;5096328;28;20038;-80
2022/04/14 01:36:22;;;;;;;2.53;1.33;;;;;;;;;;5078549;28;20032;-79
2022/04/14 01:38:47;;;;;;;3.15;1.52;;;;;;;;;;5096090;28;20056;-80
2022/04/14 01:41:13;;;;;;;0.77;0.75;;;;;;;;;;5078451;28;20024;-79
2022/04/14 01:43:38;;;;;;;1.17;0.73;;;;;;;;;;5078217;28;20100;-79
2022/04/14 01:46:08;;;;;;;2.42;1.35;;;;;;;;;;5078121;28;20514;-80
2022/04/14 01:48:34;;;;;;;1.20;0.65;;;;;;;;;;5097296;28;20053;-79
2022/04/14 01:51:00;;;;;;;1.70;0.90;;;;;;;;;;5099085;28;20024;-79
2022/04/14 01:53:25;;;;;;;2.15;1.60;;;;;;;;;;5095813;28;20054;-80
2022/04/14 01:55:51;;;;;;;1.65;1.45;;;;;;;;;;5095969;28;20479;-80
2022/04/14 01:58:16;;;;;;;0.80;0.73;;;;;;;;;;5096241;28;20032;-79
2022/04/14 02:00:41;;;;;;;0.93;0.75;;;;;;;;;;5095922;28;20032;-79
2022/04/14 02:03:07;;;;;;;1.48;1.38;;;;;;;;;;5095906;28;20031;-79
2022/04/14 02:05:32;;;;;;;1.55;0.95;;;;;;;;;;5078456;28;20457;-80
2022/04/14 02:07:58;;;;;;;1.98;0.80;;;;;;;;;;5095460;28;20032;-80
2022/04/14 02:10:23;;;;;;;1.70;1.25;;;;;;;;;;5068455;28;20024;-80
2022/04/14 02:12:49;;;;;;;0.90;0.70;;;;;;;;;;5095635;28;20084;-80
2022/04/14 02:15:14;;;;;;;4.57;1.15;;;;;;;;;;5095690;28;20051;-79
2022/04/14 02:17:40;;;;;;;0.50;0.50;;;;;;;;;;5095607;28;20457;-80
2022/04/14 02:20:05;;;;;;;1.60;1.38;;;;;;;;;;5095465;28;20054;-80
2022/04/14 02:22:40;;;;;;;1.33;1.05;;;;;;;;;;5077503;28;20056;-80
2022/04/14 02:25:06;;;;;;;2.53;1.00;;;;;;;;;;5077299;28;20119;-80
2022/04/14 02:27:31;;;;;;;6.47;1.20;;;;;;;;;;5095610;28;20078;-80
2022/04/14 02:29:57;;;;;;;1.08;0.82;;;;;;;;;;5100846;28;20030;-79
2022/04/14 02:32:22;;;;;;;1.08;0.90;;;;;;;;;;5098332;28;20103;-80
2022/04/14 02:34:48;;;;;;;1.77;1.05;;;;;;;;;;5095215;28;20040;-80
2022/04/14 02:37:13;;;;;;;2.40;1.13;;;;;;;;;;5093968;28;20044;-80
2022/04/14 02:39:39;;;;;;;2.05;1.13;;;;;;;;;;5077122;28;20365;-80
2022/04/14 02:42:05;;;;;;;0.93;0.85;;;;;;;;;;5095131;28;20104;-80
2022/04/14 02:44:30;;;;;;;1.38;1.27;;;;;;;;;;5095163;28;20444;-80
2022/04/14 02:46:56;;;;;;;0.90;0.50;;;;;;;;;;5095025;28;20027;-80
2022/04/14 02:49:23;;;;;;;1.17;1.08;;;;;;;;;;5095540;28;20368;-81
2022/04/14 02:51:49;;;;;;;1.38;1.00;;;;;;;;;;5101954;28;20028;-80
2022/04/14 02:54:14;;;;;;;0.80;0.80;;;;;;;;;;5094809;28;20032;-80
2022/04/14 02:56:40;;;;;;;9.45;1.20;;;;;;;;;;5095120;28;20040;-80
2022/04/14 02:59:05;;;;;;;1.88;1.50;;;;;;;;;;5076930;28;20028;-79
2022/04/14 03:01:31;;;;;;;1.20;0.57;;;;;;;;;;5077053;28;20111;-80
2022/04/14 03:03:56;;;;;;;1.85;1.25;;;;;;;;;;5094692;28;20043;-79
2022/04/14 03:06:21;;;;;;;0.50;0.50;;;;;;;;;;5076771;28;20032;-79
2022/04/14 03:08:47;;;;;;;2.33;1.23;;;;;;;;;;5094566;28;20028;-80
2022/04/14 03:11:12;;;;;;;1.83;0.90;;;;;;;;;;5101941;28;20020;-80
2022/04/14 03:13:39;;;;;;;1.60;0.82;;;;;;;;;;5095136;28;20474;-80
2022/04/14 03:16:04;;;;;;;0.80;0.80;;;;;;;;;;5095562;28;20024;-79
2022/04/14 03:18:30;;;;;;;1.00;0.68;;;;;;;;;;5095464;28;20031;-79
2022/04/14 03:20:55;;;;;;;1.80;1.55;;;;;;;;;;5095189;28;20032;-79
2022/04/14 03:23:21;;;;;;;0.68;0.60;;;;;;;;;;5094687;28;20102;-80
2022/04/14 03:25:46;;;;;;;1.60;1.48;;;;;;;;;;5076307;28;20112;-78
2022/04/14 03:28:12;;;;;;;0.55;0.47;;;;;;;;;;5094382;28;20024;-78
2022/04/14 03:30:37;;;;;;;0.82;0.75;;;;;;;;;;5096004;28;20035;-79
2022/04/14 03:33:03;;;;;;;1.67;1.23;;;;;;;;;;5097719;28;20067;-79
2022/04/14 03:35:28;;;;;;;0.82;0.75;;;;;;;;;;5095264;28;20115;-78
2022/04/14 03:37:54;;;;;;;1.58;0.50;;;;;;;;;;5094529;28;20020;-79
2022/04/14 03:40:19;;;;;;;1.10;0.80;;;;;;;;;;5093876;28;20020;-80
2022/04/14 03:42:45;;;;;;;3.00;0.70;;;;;;;;;;5095235;28;20461;-80
2022/04/14 03:45:10;;;;;;;0.65;0.65;;;;;;;;;;5077771;28;20020;-80
2022/04/14 03:47:36;;;;;;;1.15;1.05;;;;;;;;;;5095983;28;20081;-80
2022/04/14 03:50:02;;;;;;;0.50;0.50;;;;;;;;;;5094797;28;20028;-80
2022/04/14 03:52:28;;;;;;;2.60;0.98;;;;;;;;;;5050248;28;20032;-79
2022/04/14 03:54:54;;;;;;;1.88;1.38;;;;;;;;;;5077734;28;20361;-79
2022/04/14 03:57:19;;;;;;;0.80;0.80;;;;;;;;;;5095907;28;20072;-79
2022/04/14 03:59:45;;;;;;;2.22;1.20;;;;;;;;;;5094434;28;20055;-80
2022/04/14 04:02:10;;;;;;;3.47;1.77;;;;;;;;;;5078360;28;20031;-79
2022/04/14 04:04:36;;;;;;;0.63;0.60;;;;;;;;;;5094853;28;20024;-79
2022/04/14 04:07:01;;;;;;;0.98;0.93;;;;;;;;;;5077199;28;20028;-78
2022/04/14 04:09:27;;;;;;;3.20;1.80;;;;;;;;;;5101745;28;20294;-79
2022/04/14 04:11:53;;;;;;;3.00;1.63;;;;;;;;;;5101960;28;20024;-80
2022/04/14 04:14:19;;;;;;;0.63;0.63;;;;;;;;;;5081218;28;20035;-80
2022/04/14 04:16:45;;;;;;;5.05;1.90;;;;;;;;;;5077720;28;20349;-80
2022/04/14 04:19:11;;;;;;;1.20;1.10;;;;;;;;;;5075683;28;20373;-79
2022/04/14 04:21:36;;;;;;;2.03;1.63;;;;;;;;;;5094398;28;20084;-79
2022/04/14 04:24:02;;;;;;;2.17;1.52;;;;;;;;;;5076732;28;20028;-78
2022/04/14 04:26:27;;;;;;;1.60;1.30;;;;;;;;;;5093660;28;20029;-78
2022/04/14 04:28:53;;;;;;;4.35;1.65;;;;;;;;;;5081016;28;20033;-75
2022/04/14 04:31:21;;;;;;;4.32;2.00;;;;;;;;;;5073608;28;20035;-78
2022/04/14 04:33:51;;;;;;;3.05;1.33;;;;;;;;;;5076828;28;20028;-77
2022/04/14 04:36:19;;;;;;;1.65;1.17;;;;;;;;;;5056343;28;20446;-76
2022/04/14 04:38:44;;;;;;;1.38;1.27;;;;;;;;;;5073857;28;20028;-77
2022/04/14 04:41:10;;;;;;;2.17;1.45;;;;;;;;;;5073398;28;20043;-76
2022/04/14 04:43:35;;;;;;;28.50;2.35;;;;;;;;;;5055972;28;20020;-77
2022/04/14 04:46:01;;;;;;;3.33;2.33;;;;;;;;;;5053580;28;20066;-76
2022/04/14 04:48:26;;;;;;;2.20;1.88;;;;;;;;;;5069686;28;20039;-77
2022/04/14 04:50:52;;;;;;;4.22;2.05;;;;;;;;;;5091806;28;20349;-78
2022/04/14 04:53:18;;;;;;;3.72;1.92;;;;;;;;;;5071575;28;20028;-77
2022/04/14 04:55:43;;;;;;;6.30;1.92;;;;;;;;;;5086313;28;20407;-76
2022/04/14 04:58:11;;;;;;;1.20;1.10;;;;;;;;;;5086333;28;20028;-76
2022/04/14 05:00:36;;;;;;;4.57;1.85;;;;;;;;;;5061247;28;20091;-78
2022/04/14 05:03:09;;;;;;;2.45;1.80;;;;;;;;;;5071484;28;20139;-77
2022/04/14 05:05:36;;;;;;;1.50;1.13;;;;;;;;;;5079668;28;20099;-78
2022/04/14 05:08:04;;;;;;;1.92;1.73;;;;;;;;;;5077536;28;20031;-77
2022/04/14 05:10:29;;;;;;;1.92;1.67;;;;;;;;;;5095430;28;20021;-78
2022/04/14 05:13:04;;;;;;;2.33;1.42;;;;;;;;;;5089175;28;20051;-75
2022/04/14 05:15:30;;;;;;;2.42;1.50;;;;;;;;;;5054809;28;20025;-76
2022/04/14 05:17:58;;;;;;;2.85;2.10;;;;;;;;;;5086761;28;20088;-78
2022/04/14 05:20:24;;;;;;;3.72;2.38;;;;;;;;;;5098572;28;20048;-80
2022/04/14 05:22:50;;;;;;;2.88;1.88;;;;;;;;;;5097747;28;20028;-80
2022/04/14 05:25:15;;;;;;;2.38;2.08;;;;;;;;;;5081733;28;20027;-82
2022/04/14 05:27:42;;;;;;;16.42;2.72;;;;;;;;;;5083231;28;20415;-80
2022/04/14 05:30:08;;;;;;;3.55;1.83;;;;;;;;;;5103974;28;20039;-81
2022/04/14 05:32:36;;;;;;;13.15;2.67;;;;;;;;;;5088941;28;20032;-80
2022/04/14 05:35:03;;;;;;;6.57;2.42;;;;;;;;;;5074462;28;20393;-82
2022/04/14 05:37:29;;;;;;;30.58;2.80;;;;;;;;;;5102378;28;20027;-79
2022/04/14 05:39:56;;;;;;;2.55;2.10;;;;;;;;;;5099318;28;20024;-78
2022/04/14 05:42:21;;;;;;;14.05;3.38;;;;;;;;;;5079903;28;20016;-80
2022/04/14 05:44:47;;;;;;;9.55;3.15;;;;;;;;;;5101113;28;20046;-83
2022/04/14 05:47:46;;;;;;;6.70;3.45;;;;;;;;;;5098028;28;20177;-80
2022/04/14 05:50:29;;;;;;;6.28;3.88;;;;;;;;;;5097044;28;20050;-81
2022/04/14 05:52:56;;;;;;;16.15;4.05;;;;;;;;;;5076600;28;20031;-80
2022/04/14 05:55:22;;;;;;;8.55;4.55;;;;;;;;;;5089902;28;20111;-80
2022/04/14 05:58:00;;;;;;;7.20;3.85;;;;;;;;;;5086884;28;20104;-81
2022/04/14 06:00:26;;;;;;;44.55;6.55;;;;;;;;;;5085791;28;20070;-80
2022/04/14 06:02:51;;;;;;;9.10;4.25;;;;;;;;;;5086690;28;20603;-79
2022/04/14 06:05:17;;;;;;;6.55;3.78;;;;;;;;;;5063344;28;20409;-81
2022/04/14 06:07:42;;;;;;;6.75;4.38;;;;;;;;;;5080237;28;20028;-80
2022/04/14 06:10:08;;;;;;;8.55;4.97;;;;;;;;;;5084744;28;20032;-81
2022/04/14 06:12:34;;;;;;;9.73;4.63;;;;;;;;;;5076238;28;20025;-82
2022/04/14 06:15:00;;;;;;;9.50;5.03;;;;;;;;;;5080488;28;20593;-82
2022/04/14 06:17:25;;;;;;;9.68;5.20;;;;;;;;;;5086874;28;20031;-81
2022/04/14 06:19:51;;;;;;;10.73;5.25;;;;;;;;;;5061937;28;20040;-82
2022/04/14 06:22:17;;;;;;;12.98;5.13;;;;;;;;;;5065242;28;20099;-79
2022/04/14 06:24:46;;;;;;;10.77;4.85;;;;;;;;;;5061548;28;20025;-79
2022/04/14 06:27:12;;;;;;;6.80;4.68;;;;;;;;;;5057980;28;20028;-79
2022/04/14 06:29:37;;;;;;;5.32;4.28;;;;;;;;;;5057665;28;20021;-81
2022/04/14 06:32:05;;;;;;;5.60;4.25;;;;;;;;;;5069296;28;20101;-84
2022/04/14 06:34:31;;;;;;;7.43;4.30;;;;;;;;;;5065232;28;20068;-84
2022/04/14 06:36:57;;;;;;;8.07;4.50;;;;;;;;;;5073426;28;20036;-80
2022/04/14 06:39:31;;;;;;;9.73;4.78;;;;;;;;;;5056351;28;20037;-81
2022/04/14 06:42:01;;;;;;;10.40;5.15;;;;;;;;;;5063440;28;20044;-82
2022/04/14 06:44:57;;;;;;;;;;;;;;;;;;;;;
2022/04/14 06:47:23;;;;;;;7.97;4.95;;;;;;;;;;5063945;28;19998;-81
2022/04/14 06:49:48;;;;;;;8.38;4.75;;;;;;;;;;5066577;28;20036;-77
2022/04/14 06:52:17;;;;;;;14.15;5.18;;;;;;;;;;5059733;28;20025;-81
2022/04/14 06:54:55;;;;;;;7.75;4.45;;;;;;;;;;5063064;28;20033;-80
2022/04/14 06:57:21;;;;;;;11.02;5.10;;;;;;;;;;5079010;28;20029;-78
2022/04/14 06:59:47;;;;;;;8.25;5.18;;;;;;;;;;5068672;28;20043;-78
2022/04/14 07:02:13;;;;;;;8.68;4.68;;;;;;;;;;5058598;28;20032;-83
2022/04/14 07:04:38;;;;;;;6.80;4.43;;;;;;;;;;5076143;28;20039;-82
2022/04/14 07:07:04;;;;;;;8.05;4.07;;;;;;;;;;5073375;28;20028;-81
2022/04/14 07:09:33;;;;;;;6.68;3.72;;;;;;;;;;5066918;28;20028;-79
2022/04/14 07:12:01;;;;;;;7.75;4.57;;;;;;;;;;5068468;28;20036;-78
2022/04/14 07:14:28;;;;;;;6.40;3.70;;;;;;;;;;5078252;28;20078;-78
2022/04/14 07:16:57;;;;;;;7.97;4.20;;;;;;;;;;5064622;28;20051;-80
2022/04/14 07:19:22;;;;;;;6.53;3.90;;;;;;;;;;5065294;28;20068;-79
2022/04/14 07:21:48;;;;;;;7.03;3.88;;;;;;;;;;5061948;28;20068;-79
2022/04/14 07:24:16;;;;;;;4.68;3.33;;;;;;;;;;5060220;28;20098;-76
2022/04/14 07:26:42;;;;;;;3.72;3.13;;;;;;;;;;5082713;28;20039;-76
2022/04/14 07:29:07;;;;;;;5.95;3.60;;;;;;;;;;5045816;28;20047;-77
2022/04/14 07:31:42;;;;;;;6.07;3.92;;;;;;;;;;5073594;28;20416;-79
2022/04/14 07:34:08;;;;;;;7.78;4.28;;;;;;;;;;5061778;28;20032;-81
2022/04/14 07:36:40;;;;;;;6.40;3.67;;;;;;;;;;5057683;28;20084;-80
2022/04/14 07:39:06;;;;;;;5.95;4.18;;;;;;;;;;5048142;28;20024;-78
2022/04/14 07:41:32;;;;;;;6.47;3.67;;;;;;;;;;5068518;28;20150;-80
2022/04/14 07:43:58;;;;;;;6.28;4.05;;;;;;;;;;5085620;28;20088;-80
2022/04/14 07:46:27;;;;;;;8.05;4.80;;;;;;;;;;5071325;28;20036;-83
2022/04/14 07:48:52;;;;;;;6.55;3.83;;;;;;;;;;5053014;28;20036;-83
2022/04/14 07:51:18;;;;;;;8.15;4.60;;;;;;;;;;5077206;28;20036;-84
2022/04/14 07:53:43;;;;;;;7.07;4.00;;;;;;;;;;5075114;28;20059;-81
2022/04/14 07:56:10;;;;;;;5.72;3.70;;;;;;;;;;5077384;28;20073;-80
2022/04/14 07:58:43;;;;;;;5.13;3.55;;;;;;;;;;5039633;28;20075;-83
2022/04/14 08:01:12;;;;;;;8.43;4.20;;;;;;;;;;5054247;28;20457;-79
2022/04/14 08:03:39;;;;;;;7.75;4.55;;;;;;;;;;5051902;28;20465;-78
2022/04/14 08:06:05;;;;;;;5.22;3.75;;;;;;;;;;5058478;28;20543;-78
2022/04/14 08:08:31;;;;;;;7.80;4.80;;;;;;;;;;5056793;28;20039;-80
2022/04/14 08:11:01;;;;;;;5.13;3.60;;;;;;;;;;5059525;28;20040;-79
2022/04/14 08:13:29;;;;;;;5.47;3.55;;;;;;;;;;5062151;28;20036;-77
2022/04/14 08:15:55;;;;;;;6.75;4.45;;;;;;;;;;5092119;28;20024;-75
2022/04/14 08:18:20;;;;;;;8.63;4.63;;;;;;;;;;5039831;28;20075;-79
2022/04/14 08:20:46;;;;;;;6.88;4.50;;;;;;;;;;5075893;28;20117;-78
2022/04/14 08:23:14;;;;;;;9.77;4.55;;;;;;;;;;5075369;28;20337;-79
2022/04/14 08:25:39;;;;;;;6.35;4.28;;;;;;;;;;5052425;28;20036;-79
2022/04/14 08:28:05;;;;;;;7.10;3.92;;;;;;;;;;5038002;28;20093;-79
2022/04/14 08:30:34;;;;;;;5.53;3.83;;;;;;;;;;5074523;28;20036;-78
2022/04/14 08:33:00;;;;;;;5.43;3.67;;;;;;;;;;5053178;28;20125;-79
2022/04/14 08:35:26;;;;;;;5.72;3.88;;;;;;;;;;5059841;28;20087;-80
2022/04/14 08:37:52;;;;;;;6.38;3.92;;;;;;;;;;5085034;28;20029;-78
2022/04/14 08:40:18;;;;;;;6.93;4.18;;;;;;;;;;5084552;28;20033;-79
2022/04/14 08:43:03;;;;;;;4.50;3.50;;;;;;;;;;5090520;28;20024;-83
2022/04/14 08:45:34;;;;;;;4.93;3.45;;;;;;;;;;5074593;28;20110;-79
2022/04/14 08:48:07;;;;;;;6.35;4.18;;;;;;;;;;5058079;28;20388;-80
2022/04/14 08:50:33;;;;;;;6.82;4.63;;;;;;;;;;5048481;28;20068;-81
2022/04/14 08:52:59;;;;;;;5.53;3.65;;;;;;;;;;5097715;28;20047;-82
2022/04/14 08:55:25;;;;;;;6.28;3.45;;;;;;;;;;5068136;28;20051;-81
2022/04/14 08:57:50;;;;;;;5.53;3.58;;;;;;;;;;5068347;28;20040;-81
2022/04/14 09:00:17;;;;;;;6.30;3.45;;;;;;;;;;5082774;28;20032;-80
2022/04/14 09:02:46;;;;;;;8.88;4.05;;;;;;;;;;5081710;28;20052;-80
2022/04/14 09:05:17;;;;;;;5.32;3.92;;;;;;;;;;5051871;28;20028;-82
2022/04/14 09:07:46;;;;;;;5.10;3.47;;;;;;;;;;5069891;28;20024;-77
2022/04/14 09:10:11;;;;;;;8.50;3.80;;;;;;;;;;5066031;28;20040;-78
2022/04/14 09:12:37;;;;;;;6.63;3.58;;;;;;;;;;5073507;28;20029;-80
2022/04/14 09:15:04;;;;;;;5.70;3.60;;;;;;;;;;5061083;28;20150;-80
2022/04/14 09:17:29;;;;;;;4.47;3.17;;;;;;;;;;5064696;28;20052;-80
2022/04/14 09:19:55;;;;;;;5.57;3.72;;;;;;;;;;5044202;28;20477;-79
2022/04/14 09:22:20;;;;;;;4.43;3.33;;;;;;;;;;5065812;28;20028;-78
2022/04/14 09:24:57;;;;;;;6.05;3.38;;;;;;;;;;5067716;28;20102;-77
2022/04/14 09:27:24;;;;;;;5.50;3.38;;;;;;;;;;5070124;28;20039;-82
2022/04/14 09:29:50;;;;;;;4.88;3.35;;;;;;;;;;5086541;28;20591;-77
2022/04/14 09:32:30;;;;;;;4.78;3.30;;;;;;;;;;5058844;28;20055;-78
2022/04/14 09:35:03;;;;;;;6.18;3.83;;;;;;;;;;5085780;28;20028;-80
2022/04/14 09:37:29;;;;;;;4.15;3.00;;;;;;;;;;5070129;28;20358;-81
2022/04/14 09:40:00;;;;;;;4.55;3.25;;;;;;;;;;5034456;28;20128;-79
2022/04/14 09:42:30;;;;;;;5.47;3.03;;;;;;;;;;5082928;28;20039;-81
2022/04/14 09:46:10;;;;;;;5.10;3.50;;;;;;;;;;5091894;28;20032;-83
2022/04/14 09:48:10;;;;;;;5.28;3.58;;;;;;;;;;5093264;28;20036;-85
2022/04/14 09:50:39;;;;;;;4.80;3.45;;;;;;;;;;5078524;28;20032;-83
2022/04/14 09:53:09;;;;;;;6.40;3.25;;;;;;;;;;5052952;28;20052;-82
2022/04/14 09:55:40;;;;;;;4.47;3.30;;;;;;;;;;5098618;28;20086;-84
2022/04/14 09:58:19;;;;;;;5.45;3.75;;;;;;;;;;5044263;28;20039;-81
2022/04/14 10:00:48;;;;;;;11.02;7.13;;;;;;;;;;5076216;28;20028;-79
2022/04/14 10:03:18;;;;;;;6.40;3.83;;;;;;;;;;5077684;28;20032;-83
2022/04/14 10:05:45;;;;;;;5.50;3.83;;;;;;;;;;5061238;28;20409;-80
2022/04/14 10:08:13;;;;;;;9.13;4.50;;;;;;;;;;5077470;28;20032;-83
2022/04/14 10:10:40;;;;;;;4.90;3.70;;;;;;;;;;5081275;28;20128;-82
2022/04/14 10:13:10;;;;;;;10.13;5.60;;;;;;;;;;5110976;28;20038;-82
2022/04/14 10:15:40;;;;;;;8.25;5.55;;;;;;;;;;5049550;28;20028;-81
2022/04/14 10:18:24;;;;;;;7.03;4.90;;;;;;;;;;5062071;28;20152;-85
2022/04/14 10:20:49;;;;;;;24.15;4.50;;;;;;;;;;5077662;28;20055;-79
2022/04/14 10:23:15;;;;;;;4.95;2.95;;;;;;;;;;5082420;28;20337;-80
2022/04/14 10:25:42;;;;;;;6.18;3.78;;;;;;;;;;5078712;28;20024;-82
2022/04/14 10:28:11;;;;;;;3.90;2.47;;;;;;;;;;5078328;28;20070;-80
2022/04/14 10:30:37;;;;;;;5.20;3.37;;;;;;;;;;5079101;28;20020;-82
2022/04/14 10:35:46;;;;;;;5.78;3.30;;;;;;;;;;5102112;22;20060;-80
2022/04/14 10:38:15;;;;;;;6.22;3.33;;;;;;;;;;5098875;28;20024;-78
2022/04/14 10:40:46;;;;;;;5.20;3.15;;;;;;;;;;5058667;28;20093;-80
2022/04/14 10:43:19;;;;;;;4.18;3.22;;;;;;;;;;5068206;28;20046;-84
2022/04/14 10:45:49;;;;;;;3.80;2.33;;;;;;;;;;5057817;28;20043;-80
2022/04/14 10:48:28;;;;;;;4.90;2.90;;;;;;;;;;5077577;28;20114;-79
2022/04/14 10:51:19;;;;;;;17.37;4.37;;;;;;;;;;5080070;28;20047;-82
2022/04/14 10:53:57;;;;;;;3.53;2.72;;;;;;;;;;5084079;28;20031;-79
2022/04/14 10:56:45;;;;;;;6.68;3.28;;;;;;;;;;5101920;28;20069;-83
2022/04/14 10:59:13;;;;;;;3.90;2.80;;;;;;;;;;5079362;28;20085;-82
2022/04/14 11:01:48;;;;;;;4.20;2.63;;;;;;;;;;5080787;28;20052;-79
2022/04/14 11:04:32;;;;;;;4.40;2.88;;;;;;;;;;5100368;28;20051;-81
2022/04/14 11:07:01;;;;;;;3.83;2.67;;;;;;;;;;5075453;28;20035;-80
2022/04/14 11:09:45;;;;;;;6.03;3.05;;;;;;;;;;5080063;28;20016;-80
2022/04/14 11:12:17;;;;;;;4.22;2.58;;;;;;;;;;5102144;28;20034;-80
2022/04/14 11:14:52;;;;;;;4.50;2.78;;;;;;;;;;5090871;28;20465;-78
2022/04/14 11:17:30;;;;;;;3.85;2.53;;;;;;;;;;5080179;28;20468;-80
2022/04/14 11:20:12;;;;;;;4.00;2.63;;;;;;;;;;5098606;28;20072;-80
2022/04/14 11:23:06;;;;;;;3.72;2.65;;;;;;;;;;5074969;28;20028;-81
2022/04/14 11:25:49;;;;;;;3.58;2.05;;;;;;;;;;5073036;28;20043;-82
2022/04/14 11:28:31;;;;;;;4.07;2.67;;;;;;;;;;5077235;28;20032;-82
2022/04/14 11:31:14;;;;;;;4.88;2.60;;;;;;;;;;5046809;28;20033;-79
2022/04/14 11:33:53;;;;;;;4.35;2.40;;;;;;;;;;5075442;28;20038;-79
2022/04/14 11:36:19;;;;;;;4.28;2.50;;;;;;;;;;5065295;28;20028;-79
2022/04/14 11:39:03;;;;;;;2.90;2.28;;;;;;;;;;5076551;28;20595;-78
2022/04/14 11:41:46;;;;;;;3.58;2.20;;;;;;;;;;5089784;28;20355;-78
2022/04/14 11:44:15;;;;;;;4.88;2.30;;;;;;;;;;5053770;28;20035;-78
2022/04/14 11:47:01;;;;;;;4.37;2.57;;;;;;;;;;5072495;28;20038;-79
2022/04/14 11:49:30;;;;;;;2.63;2.15;;;;;;;;;;5073372;28;20049;-77
2022/04/14 11:52:00;;;;;;;5.25;2.70;;;;;;;;;;5099397;27;20035;-78
2022/04/14 11:54:29;;;;;;;2.33;1.70;;;;;;;;;;5076964;28;20038;-78
2022/04/14 11:57:00;;;;;;;2.92;2.17;;;;;;;;;;5092197;28;20376;-79
2022/04/14 11:59:34;;;;;;;4.20;1.63;;;;;;;;;;5074965;28;20043;-79
2022/04/14 12:02:02;;;;;;;2.17;1.73;;;;;;;;;;5075414;28;20067;-80
2022/04/14 12:04:36;;;;;;;2.88;1.50;;;;;;;;;;5097146;28;20040;-80
2022/04/14 12:07:01;;;;;;;2.80;1.83;;;;;;;;;;5063526;28;20032;-80
2022/04/14 12:09:27;;;;;;;4.95;1.77;;;;;;;;;;5046292;28;20036;-80
2022/04/14 12:11:52;;;;;;;3.30;1.65;;;;;;;;;;5068271;28;20364;-78
2022/04/14 12:14:19;;;;;;;5.45;2.05;;;;;;;;;;5098488;28;20443;-79
2022/04/14 12:16:51;;;;;;;2.45;1.90;;;;;;;;;;5079163;28;20035;-81
2022/04/14 12:19:18;;;;;;;2.63;1.60;;;;;;;;;;5062883;28;20035;-80
2022/04/14 12:21:57;;;;;;;4.03;2.10;;;;;;;;;;5079199;28;20081;-81
2022/04/14 12:24:23;;;;;;;3.25;2.17;;;;;;;;;;5064784;28;20059;-80
2022/04/14 12:26:49;;;;;;;2.38;1.75;;;;;;;;;;5062702;28;20047;-78
2022/04/14 12:29:14;;;;;;;2.40;1.88;;;;;;;;;;5079306;28;20437;-80
2022/04/14 12:31:41;;;;;;;1.90;1.60;;;;;;;;;;5088881;28;20049;-82
2022/04/14 12:34:08;;;;;;;4.68;2.35;;;;;;;;;;5063166;28;20056;-82
2022/04/14 12:36:37;;;;;;;2.65;1.73;;;;;;;;;;5079553;28;20139;-81
2022/04/14 12:39:04;;;;;;;3.00;1.93;;;;;;;;;;5077765;28;20357;-80
2022/04/14 12:41:37;;;;;;;1.70;1.50;;;;;;;;;;5078735;28;20028;-82
2022/04/14 12:44:03;;;;;;;8.00;4.63;;;;;;;;;;5063248;28;20056;-80
2022/04/14 12:46:35;;;;;;;5.32;2.63;;;;;;;;;;5078925;28;20112;-78
2022/04/14 12:49:12;;;;;;;7.05;3.90;;;;;;;;;;5079773;28;20036;-79
2022/04/14 12:51:45;;;;;;;3.58;2.15;;;;;;;;;;5065970;28;20437;-77
2022/04/14 12:54:20;;;;;;;2.53;1.58;;;;;;;;;;5081236;28;20032;-83
2022/04/14 12:56:59;;;;;;;4.70;3.00;;;;;;;;;;5063820;28;20090;-80
2022/04/14 12:59:25;;;;;;;10.40;4.20;;;;;;;;;;5096440;28;20028;-81
2022/04/14 13:02:07;;;;;;;3.80;2.50;;;;;;;;;;5059678;28;20025;-79
2022/04/14 13:04:43;;;;;;;8.82;4.32;;;;;;;;;;5077431;28;20334;-81
2022/04/14 13:07:15;;;;;;;2.90;1.77;;;;;;;;;;5096536;28;20023;-80
2022/04/14 13:09:57;;;;;;;5.57;3.88;;;;;;;;;;5070367;28;20033;-82
2022/04/14 13:12:42;;;;;;;7.38;4.43;;;;;;;;;;5093761;28;20043;-84
2022/04/14 13:15:11;;;;;;;4.40;2.30;;;;;;;;;;5102911;28;20028;-82
2022/04/14 13:17:38;;;;;;;1.90;1.73;;;;;;;;;;5077869;28;20020;-81
2022/04/14 13:20:36;;;;;;;2.15;1.45;;;;;;;;;;5094329;28;20027;-82
2022/04/14 13:23:02;;;;;;;2.00;1.88;;;;;;;;;;5103430;28;20040;-83
2022/04/14 13:25:29;;;;;;;7.95;4.90;;;;;;;;;;5086714;28;20096;-82
2022/04/14 13:27:55;;;;;;;13.23;5.43;;;;;;;;;;5088640;28;20040;-84
2022/04/14 13:30:21;;;;;;;9.80;5.18;;;;;;;;;;5076500;28;20047;-81
2022/04/14 13:32:47;;;;;;;5.07;3.20;;;;;;;;;;5110215;28;20031;-82
2022/04/14 13:35:13;;;;;;;4.65;2.85;;;;;;;;;;5094481;28;20088;-84
2022/04/14 13:37:39;;;;;;;2.38;1.52;;;;;;;;;;5090211;28;20031;-84
2022/04/14 13:40:05;;;;;;;3.97;1.90;;;;;;;;;;5084290;28;20016;-81
2022/04/14 13:42:41;;;;;;;;;;;;;;;;;;;;;
2022/04/14 13:45:10;;;;;;;1.52;1.33;;;;;;;;;;5070330;28;20080;-83
2022/04/14 13:47:40;;;;;;;2.20;1.88;;;;;;;;;;5049966;28;20377;-80
2022/04/14 13:50:09;;;;;;;2.30;1.73;;;;;;;;;;5072936;28;20040;-80
2022/04/14 13:52:34;;;;;;;2.47;1.90;;;;;;;;;;5075822;28;20370;-81
2022/04/14 13:55:00;;;;;;;1.60;1.25;;;;;;;;;;5058894;28;20282;-80
2022/04/14 13:57:25;;;;;;;3.05;1.70;;;;;;;;;;5075629;28;20040;-80
2022/04/14 13:59:51;;;;;;;2.80;1.48;;;;;;;;;;5056512;28;20433;-81
2022/04/14 14:02:16;;;;;;;2.05;1.50;;;;;;;;;;5074885;28;20365;-80
2022/04/14 14:04:42;;;;;;;1.27;1.17;;;;;;;;;;5074664;28;20029;-81
2022/04/14 14:07:07;;;;;;;2.22;1.80;;;;;;;;;;5075448;28;20024;-80
2022/04/14 14:09:33;;;;;;;2.15;1.42;;;;;;;;;;5079166;28;20032;-80
2022/04/14 14:11:58;;;;;;;13.45;1.58;;;;;;;;;;5080002;28;20024;-80
2022/04/14 14:14:25;;;;;;;2.10;1.30;;;;;;;;;;5057748;28;20033;-80
2022/04/14 14:16:50;;;;;;;1.40;1.30;;;;;;;;;;5075351;28;20031;-79
2022/04/14 14:19:17;;;;;;;1.23;1.13;;;;;;;;;;5075521;28;20028;-82
2022/04/14 14:21:43;;;;;;;2.17;1.23;;;;;;;;;;5057767;28;20441;-80
2022/04/14 14:24:09;;;;;;;1.75;1.40;;;;;;;;;;5041161;28;20460;-80
2022/04/14 14:26:35;;;;;;;2.78;1.60;;;;;;;;;;5057201;28;20032;-80
2022/04/14 14:29:00;;;;;;;2.33;1.63;;;;;;;;;;5057849;28;20111;-80
2022/04/14 14:31:26;;;;;;;2.03;1.45;;;;;;;;;;5046568;28;20039;-80
2022/04/14 14:33:51;;;;;;;4.47;1.42;;;;;;;;;;5073780;28;20522;-81
2022/04/14 14:36:17;;;;;;;1.95;1.33;;;;;;;;;;5057414;28;20048;-80
2022/04/14 14:38:44;;;;;;;1.83;1.67;;;;;;;;;;5040533;28;20032;-80
2022/04/14 14:41:10;;;;;;;3.78;1.30;;;;;;;;;;5074734;28;20039;-81
2022/04/14 14:43:39;;;;;;;1.80;1.33;;;;;;;;;;5074749;28;20028;-80
2022/04/14 14:46:04;;;;;;;1.88;1.50;;;;;;;;;;5040822;28;20392;-80
2022/04/14 14:48:30;;;;;;;5.72;1.70;;;;;;;;;;5073607;28;20032;-80
2022/04/14 14:50:55;;;;;;;3.03;1.83;;;;;;;;;;5065220;28;20033;-80
2022/04/14 14:53:21;;;;;;;1.75;1.50;;;;;;;;;;5075175;28;20063;-78